Time;durP1;ratioP1;P1;durP2;ratioP2;P2;SDS_P1;SDS_P2;PMS_P1;PMS_P2;Temp;Humidity;BMP_temperature;BMP_pressure;BME280_temperature;BME280_humidity;BME280_pressure;Samples;Min_cycle;Max_cycle;Signal;HPM_P1;HPM_P2
2021/01/26 00:01:00;;;;;;;7.15;6.45;;;;;;;;;;5056771;28;20219;-48
2021/01/26 00:03:26;;;;;;;6.47;5.78;;;;;;;;;;5064642;28;20204;-48
2021/01/26 00:05:53;;;;;;;6.63;5.72;;;;;;;;;;5054438;28;20258;-49
2021/01/26 00:08:19;;;;;;;7.30;6.00;;;;;;;;;;5056417;28;20183;-49
2021/01/26 00:10:45;;;;;;;6.38;5.68;;;;;;;;;;5053806;28;20184;-49
2021/01/26 00:13:12;;;;;;;6.22;5.63;;;;;;;;;;5058420;28;20210;-49
2021/01/26 00:15:38;;;;;;;6.32;5.72;;;;;;;;;;5057444;28;20174;-49
2021/01/26 00:18:05;;;;;;;6.38;5.78;;;;;;;;;;5058391;28;20233;-49
2021/01/26 00:20:31;;;;;;;6.18;5.57;;;;;;;;;;5053343;28;20198;-49
2021/01/26 00:22:57;;;;;;;6.40;5.80;;;;;;;;;;5053300;28;20201;-49
2021/01/26 00:25:26;;;;;;;8.02;5.65;;;;;;;;;;5062340;28;20470;-49
2021/01/26 00:27:52;;;;;;;6.85;5.47;;;;;;;;;;5073380;28;20258;-49
2021/01/26 00:30:20;;;;;;;6.43;5.82;;;;;;;;;;5070628;28;20183;-48
2021/01/26 00:32:46;;;;;;;6.47;5.80;;;;;;;;;;5060896;28;20174;-48
2021/01/26 00:35:12;;;;;;;6.18;5.57;;;;;;;;;;5063300;28;20258;-49
2021/01/26 00:37:38;;;;;;;6.63;5.88;;;;;;;;;;5056201;28;20260;-48
2021/01/26 00:40:05;;;;;;;5.85;5.28;;;;;;;;;;5054480;28;20189;-49
2021/01/26 00:42:31;;;;;;;5.82;5.25;;;;;;;;;;5065305;28;20237;-49
2021/01/26 00:44:57;;;;;;;5.82;5.25;;;;;;;;;;5072867;28;20182;-49
2021/01/26 00:47:23;;;;;;;5.80;5.22;;;;;;;;;;5056770;28;20189;-49
2021/01/26 00:49:49;;;;;;;6.30;5.32;;;;;;;;;;5064713;28;20558;-49
2021/01/26 00:52:15;;;;;;;5.75;5.15;;;;;;;;;;5064185;28;20206;-49
2021/01/26 00:54:41;;;;;;;5.63;5.13;;;;;;;;;;5060461;28;20178;-49
2021/01/26 00:57:07;;;;;;;6.10;5.50;;;;;;;;;;5063542;28;20183;-49
2021/01/26 00:59:34;;;;;;;5.72;5.22;;;;;;;;;;5052615;28;20175;-48
2021/01/26 01:02:00;;;;;;;5.65;5.15;;;;;;;;;;5070977;28;20210;-49
2021/01/26 01:04:26;;;;;;;5.85;5.25;;;;;;;;;;5060858;28;20191;-49
2021/01/26 01:06:52;;;;;;;6.28;5.68;;;;;;;;;;5072764;28;20549;-49
2021/01/26 01:09:18;;;;;;;5.85;5.25;;;;;;;;;;5073419;28;20183;-49
2021/01/26 01:11:44;;;;;;;5.43;4.93;;;;;;;;;;5069854;28;20187;-49
2021/01/26 01:14:10;;;;;;;5.30;4.85;;;;;;;;;;5071571;28;20186;-49
2021/01/26 01:16:36;;;;;;;5.20;4.70;;;;;;;;;;5066387;28;20210;-49
2021/01/26 01:19:02;;;;;;;5.25;4.75;;;;;;;;;;5056948;28;20206;-49
2021/01/26 01:21:28;;;;;;;5.68;5.13;;;;;;;;;;5056913;28;20217;-48
2021/01/26 01:23:54;;;;;;;6.22;5.63;;;;;;;;;;5072483;28;20183;-49
2021/01/26 01:26:20;;;;;;;5.70;5.20;;;;;;;;;;5072204;28;20236;-49
2021/01/26 01:28:46;;;;;;;5.68;5.13;;;;;;;;;;5057776;28;20187;-49
2021/01/26 01:31:12;;;;;;;5.68;5.13;;;;;;;;;;5053221;28;20273;-48
2021/01/26 01:33:39;;;;;;;5.90;5.30;;;;;;;;;;5067181;28;20187;-49
2021/01/26 01:36:05;;;;;;;5.15;4.63;;;;;;;;;;5067556;28;20952;-47
2021/01/26 01:38:31;;;;;;;5.75;5.25;;;;;;;;;;5062207;28;20457;-49
2021/01/26 01:40:57;;;;;;;5.32;4.82;;;;;;;;;;5076418;28;20202;-48
2021/01/26 01:43:23;;;;;;;5.32;4.82;;;;;;;;;;5074970;28;20213;-49
2021/01/26 01:45:49;;;;;;;6.53;5.47;;;;;;;;;;5056163;28;20224;-49
2021/01/26 01:48:16;;;;;;;5.47;4.80;;;;;;;;;;5058238;28;20245;-49
2021/01/26 01:50:48;;;;;;;5.35;4.85;;;;;;;;;;5056419;28;20222;-48
2021/01/26 01:53:17;;;;;;;5.25;4.78;;;;;;;;;;5074095;28;20265;-49
2021/01/26 01:55:48;;;;;;;5.20;4.70;;;;;;;;;;5075149;28;20193;-49
2021/01/26 01:58:17;;;;;;;5.10;4.60;;;;;;;;;;5075788;28;20182;-47
2021/01/26 02:00:43;;;;;;;5.22;4.80;;;;;;;;;;5068443;28;20311;-49
2021/01/26 02:03:14;;;;;;;5.50;5.00;;;;;;;;;;5062386;28;20178;-49
2021/01/26 02:05:40;;;;;;;4.57;4.18;;;;;;;;;;5063312;28;20174;-49
2021/01/26 02:08:10;;;;;;;5.35;4.85;;;;;;;;;;5068702;28;20202;-48
2021/01/26 02:10:36;;;;;;;5.10;4.60;;;;;;;;;;5055964;28;20562;-49
2021/01/26 02:13:02;;;;;;;5.10;4.60;;;;;;;;;;5075372;28;20189;-48
2021/01/26 02:15:28;;;;;;;5.45;4.70;;;;;;;;;;5073983;28;20186;-48
2021/01/26 02:17:54;;;;;;;5.15;4.65;;;;;;;;;;5071673;28;20178;-48
2021/01/26 02:20:29;;;;;;;5.05;4.55;;;;;;;;;;5073213;28;20601;-49
2021/01/26 02:23:12;;;;;;;4.82;4.38;;;;;;;;;;5063068;28;20182;-48
2021/01/26 02:25:40;;;;;;;4.90;4.40;;;;;;;;;;5057052;28;20213;-48
2021/01/26 02:28:10;;;;;;;4.95;4.45;;;;;;;;;;5063451;28;20182;-49
2021/01/26 02:30:51;;;;;;;5.20;4.70;;;;;;;;;;5073616;28;20194;-48
2021/01/26 02:33:20;;;;;;;4.53;4.03;;;;;;;;;;5060229;28;20285;-49
2021/01/26 02:36:05;;;;;;;4.93;4.28;;;;;;;;;;5069357;28;20217;-48
2021/01/26 02:38:37;;;;;;;4.68;4.28;;;;;;;;;;5055056;28;20233;-49
2021/01/26 02:41:09;;;;;;;4.35;3.95;;;;;;;;;;5056647;28;20217;-49
2021/01/26 02:43:49;;;;;;;4.40;4.00;;;;;;;;;;5054798;28;20576;-49
2021/01/26 02:46:17;;;;;;;4.85;3.85;;;;;;;;;;5054640;28;20175;-48
2021/01/26 02:49:00;;;;;;;4.50;4.10;;;;;;;;;;5062946;28;20175;-49
2021/01/26 02:51:46;;;;;;;4.97;4.10;;;;;;;;;;5070554;28;20777;-48
2021/01/26 02:54:20;;;;;;;4.07;3.67;;;;;;;;;;5074640;28;20174;-49
2021/01/26 02:57:05;;;;;;;4.88;4.25;;;;;;;;;;5061131;28;20608;-49
2021/01/26 02:59:37;;;;;;;4.38;3.97;;;;;;;;;;5059496;28;20240;-49
2021/01/26 03:02:09;;;;;;;4.20;3.80;;;;;;;;;;5063599;28;20214;-49
2021/01/26 03:04:58;;;;;;;4.35;3.90;;;;;;;;;;5062599;28;20179;-49
2021/01/26 03:07:25;;;;;;;4.30;3.90;;;;;;;;;;5034615;28;20195;-49
2021/01/26 03:09:53;;;;;;;3.92;3.58;;;;;;;;;;5056187;28;20186;-49
2021/01/26 03:12:25;;;;;;;4.45;3.90;;;;;;;;;;5062278;28;20644;-49
2021/01/26 03:14:59;;;;;;;4.18;3.78;;;;;;;;;;5054105;28;20184;-49
2021/01/26 03:17:31;;;;;;;3.75;3.45;;;;;;;;;;5060510;28;20182;-49
2021/01/26 03:20:00;;;;;;;4.22;3.60;;;;;;;;;;5073346;28;20213;-48
2021/01/26 03:22:27;;;;;;;3.53;3.22;;;;;;;;;;5072807;28;20170;-49
2021/01/26 03:24:55;;;;;;;4.00;3.60;;;;;;;;;;5060378;28;20229;-49
2021/01/26 03:27:24;;;;;;;4.00;3.63;;;;;;;;;;5063986;28;20189;-49
2021/01/26 03:29:53;;;;;;;3.95;3.55;;;;;;;;;;5069143;28;20229;-48
2021/01/26 03:32:22;;;;;;;3.83;3.45;;;;;;;;;;5055211;28;20236;-49
2021/01/26 03:34:48;;;;;;;3.58;3.28;;;;;;;;;;5064913;28;20449;-48
2021/01/26 03:37:14;;;;;;;3.00;2.80;;;;;;;;;;5061844;28;20190;-48
2021/01/26 03:39:40;;;;;;;3.20;2.90;;;;;;;;;;5070184;28;20226;-48
2021/01/26 03:42:07;;;;;;;3.75;3.33;;;;;;;;;;5054038;28;20249;-49
2021/01/26 03:44:34;;;;;;;3.33;3.05;;;;;;;;;;5053854;28;20183;-49
2021/01/26 03:47:08;;;;;;;3.35;3.05;;;;;;;;;;5060410;28;20263;-49
2021/01/26 03:49:59;;;;;;;3.40;2.92;;;;;;;;;;5068911;28;20177;-49
2021/01/26 03:52:33;;;;;;;3.15;2.90;;;;;;;;;;5066245;28;20182;-48
2021/01/26 03:54:59;;;;;;;2.90;2.70;;;;;;;;;;5073523;28;20592;-48
2021/01/26 03:57:31;;;;;;;3.00;2.70;;;;;;;;;;5066913;28;20182;-49
2021/01/26 04:00:06;;;;;;;3.50;3.20;;;;;;;;;;5056750;28;20218;-49
2021/01/26 04:02:52;;;;;;;2.88;2.67;;;;;;;;;;5054714;28;20205;-49
2021/01/26 04:05:21;;;;;;;2.97;2.78;;;;;;;;;;5062699;28;20182;-49
2021/01/26 04:07:55;;;;;;;2.90;2.70;;;;;;;;;;5073383;28;20190;-49
2021/01/26 04:10:25;;;;;;;3.17;2.80;;;;;;;;;;5073600;28;20265;-49
2021/01/26 04:12:57;;;;;;;3.38;3.08;;;;;;;;;;5059182;28;20240;-49
2021/01/26 04:15:49;;;;;;;3.03;2.72;;;;;;;;;;5069951;28;20198;-48
2021/01/26 04:18:18;;;;;;;3.28;2.97;;;;;;;;;;5062937;28;20210;-48
2021/01/26 04:20:44;;;;;;;2.65;2.45;;;;;;;;;;5060037;28;20211;-49
2021/01/26 04:23:12;;;;;;;2.83;2.55;;;;;;;;;;5053648;28;20185;-49
2021/01/26 04:25:39;;;;;;;3.10;2.80;;;;;;;;;;5057425;28;20177;-49
2021/01/26 04:28:14;;;;;;;2.50;2.30;;;;;;;;;;5060824;28;20182;-48
2021/01/26 04:30:40;;;;;;;2.67;2.47;;;;;;;;;;5053460;28;20228;-49
2021/01/26 04:33:11;;;;;;;2.53;2.33;;;;;;;;;;5057623;28;20202;-49
2021/01/26 04:35:38;;;;;;;2.85;2.60;;;;;;;;;;5066979;28;20186;-48
2021/01/26 04:38:04;;;;;;;2.70;2.50;;;;;;;;;;5072642;28;20192;-48
2021/01/26 04:40:31;;;;;;;2.70;2.50;;;;;;;;;;5054101;28;20613;-49
2021/01/26 04:43:01;;;;;;;2.55;2.35;;;;;;;;;;5058819;28;20186;-49
2021/01/26 04:45:36;;;;;;;2.60;2.40;;;;;;;;;;5068850;28;20270;-49
2021/01/26 04:48:12;;;;;;;2.53;2.33;;;;;;;;;;5063069;28;20182;-49
2021/01/26 04:51:04;;;;;;;2.47;2.28;;;;;;;;;;5071193;28;20186;-48
2021/01/26 04:53:30;;;;;;;3.65;2.63;;;;;;;;;;5058798;28;20203;-49
2021/01/26 04:56:15;;;;;;;2.60;2.40;;;;;;;;;;5058880;28;20227;-49
2021/01/26 04:59:16;;;;;;;3.63;2.35;;;;;;;;;;5066075;28;20195;-49
2021/01/26 05:01:54;;;;;;;2.67;2.47;;;;;;;;;;5001810;28;20216;-49
2021/01/26 05:04:22;;;;;;;5.07;2.30;;;;;;;;;;5057130;28;20191;-48
2021/01/26 05:06:51;;;;;;;4.47;2.70;;;;;;;;;;5058125;28;20175;-49
2021/01/26 05:09:29;;;;;;;20.83;5.50;;;;;;;;;;5055415;28;20183;-49
2021/01/26 05:11:57;;;;;;;22.70;6.03;;;;;;;;;;5076615;28;20190;-49
2021/01/26 05:14:26;;;;;;;16.50;4.47;;;;;;;;;;5061490;28;20200;-48
2021/01/26 05:17:05;;;;;;;11.80;4.10;;;;;;;;;;5058439;28;20245;-48
2021/01/26 05:19:37;;;;;;;11.52;3.72;;;;;;;;;;5061046;28;20578;-49
2021/01/26 05:22:25;;;;;;;7.78;3.65;;;;;;;;;;5060785;28;20477;-49
2021/01/26 05:25:05;;;;;;;11.70;3.95;;;;;;;;;;5074887;28;20183;-47
2021/01/26 05:27:31;;;;;;;12.15;3.88;;;;;;;;;;5065276;28;20186;-49
2021/01/26 05:29:58;;;;;;;8.80;4.22;;;;;;;;;;5060867;28;20246;-49
2021/01/26 05:32:25;;;;;;;9.50;3.90;;;;;;;;;;5057051;28;20191;-49
2021/01/26 05:34:52;;;;;;;9.77;3.63;;;;;;;;;;5062679;28;20210;-49
2021/01/26 05:37:19;;;;;;;8.77;3.95;;;;;;;;;;5061540;28;20178;-49
2021/01/26 05:39:48;;;;;;;8.38;3.42;;;;;;;;;;5056626;28;20305;-49
2021/01/26 05:42:15;;;;;;;9.02;3.40;;;;;;;;;;5068764;28;20206;-49
2021/01/26 05:44:46;;;;;;;8.73;3.53;;;;;;;;;;5075458;28;20220;-48
2021/01/26 05:47:24;;;;;;;9.07;3.72;;;;;;;;;;5071814;28;20175;-49
2021/01/26 05:49:50;;;;;;;9.10;3.67;;;;;;;;;;5065967;28;20186;-48
2021/01/26 05:52:17;;;;;;;7.03;2.70;;;;;;;;;;5057548;28;20282;-49
2021/01/26 05:54:49;;;;;;;8.48;3.47;;;;;;;;;;5055230;28;20191;-49
2021/01/26 05:57:26;;;;;;;7.72;3.20;;;;;;;;;;5056146;28;20265;-49
2021/01/26 05:59:52;;;;;;;4.75;3.40;;;;;;;;;;5070352;28;20182;-48
2021/01/26 06:02:22;;;;;;;9.40;3.28;;;;;;;;;;5065927;28;20203;-49
2021/01/26 06:04:49;;;;;;;7.00;2.95;;;;;;;;;;5068171;28;20171;-49
2021/01/26 06:07:16;;;;;;;6.05;2.90;;;;;;;;;;5067874;28;20423;-49
2021/01/26 06:09:43;;;;;;;8.55;3.13;;;;;;;;;;5055213;28;20203;-49
2021/01/26 06:12:09;;;;;;;3.65;2.65;;;;;;;;;;5055795;28;20256;-49
2021/01/26 06:14:36;;;;;;;6.95;2.55;;;;;;;;;;5055288;28;20684;-49
2021/01/26 06:17:06;;;;;;;4.75;2.83;;;;;;;;;;5059920;28;20206;-49
2021/01/26 06:19:32;;;;;;;4.80;3.03;;;;;;;;;;5057789;28;20565;-49
2021/01/26 06:21:58;;;;;;;4.57;2.88;;;;;;;;;;5070068;28;20217;-49
2021/01/26 06:24:26;;;;;;;3.50;2.30;;;;;;;;;;5072859;28;20178;-49
2021/01/26 06:27:11;;;;;;;3.97;2.55;;;;;;;;;;5073863;28;20178;-49
2021/01/26 06:29:38;;;;;;;3.60;2.20;;;;;;;;;;5057477;28;20178;-49
2021/01/26 06:32:04;;;;;;;4.88;2.60;;;;;;;;;;5061174;28;20195;-49
2021/01/26 06:34:33;;;;;;;3.95;2.28;;;;;;;;;;5059367;28;20187;-49
2021/01/26 06:37:10;;;;;;;4.78;2.50;;;;;;;;;;5056582;28;20175;-49
2021/01/26 06:39:55;;;;;;;4.82;2.40;;;;;;;;;;5065153;28;20190;-49
2021/01/26 06:42:40;;;;;;;4.10;2.60;;;;;;;;;;5068760;28;20651;-49
2021/01/26 06:45:18;;;;;;;4.05;2.10;;;;;;;;;;5071282;28;20186;-49
2021/01/26 06:47:59;;;;;;;4.57;2.20;;;;;;;;;;5071702;28;20474;-49
2021/01/26 06:50:29;;;;;;;4.70;2.20;;;;;;;;;;5072710;28;20186;-49
2021/01/26 06:53:07;;;;;;;5.53;2.15;;;;;;;;;;5061331;28;20183;-49
2021/01/26 06:55:46;;;;;;;4.75;2.22;;;;;;;;;;5053918;28;20261;-49
2021/01/26 06:58:30;;;;;;;2.88;2.35;;;;;;;;;;5055210;28;20222;-49
2021/01/26 07:01:11;;;;;;;2.03;1.80;;;;;;;;;;5065399;28;20232;-49
2021/01/26 07:03:56;;;;;;;3.05;2.10;;;;;;;;;;5060382;28;20225;-49
2021/01/26 07:06:31;;;;;;;3.83;1.80;;;;;;;;;;5073893;28;20170;-49
2021/01/26 07:09:17;;;;;;;4.90;2.03;;;;;;;;;;5074507;28;20208;-49
2021/01/26 07:11:43;;;;;;;2.78;2.20;;;;;;;;;;5057074;28;20215;-49
2021/01/26 07:14:16;;;;;;;3.00;2.00;;;;;;;;;;5055617;28;20313;-49
2021/01/26 07:17:02;;;;;;;4.32;1.98;;;;;;;;;;5062985;28;20574;-49
2021/01/26 07:19:34;;;;;;;3.22;2.20;;;;;;;;;;5073645;28;20230;-49
2021/01/26 07:22:18;;;;;;;3.42;2.05;;;;;;;;;;5072396;28;20202;-49
2021/01/26 07:24:48;;;;;;;2.45;1.52;;;;;;;;;;5064654;28;20189;-49
2021/01/26 07:27:20;;;;;;;2.47;1.70;;;;;;;;;;5061389;28;20183;-49
2021/01/26 07:30:04;;;;;;;2.58;1.70;;;;;;;;;;5056917;28;20175;-49
2021/01/26 07:32:33;;;;;;;2.85;1.83;;;;;;;;;;5052906;28;20199;-49
2021/01/26 07:34:59;;;;;;;4.65;1.83;;;;;;;;;;5053513;28;20183;-49
2021/01/26 07:37:33;;;;;;;3.10;1.83;;;;;;;;;;5053909;28;20506;-49
2021/01/26 07:39:59;;;;;;;2.30;1.65;;;;;;;;;;5061649;28;20194;-49
2021/01/26 07:42:31;;;;;;;2.40;1.90;;;;;;;;;;5064832;28;20206;-49
2021/01/26 07:45:04;;;;;;;2.10;1.75;;;;;;;;;;5055063;28;20230;-49
2021/01/26 07:47:36;;;;;;;3.13;1.75;;;;;;;;;;5066491;28;20178;-49
2021/01/26 07:50:02;;;;;;;2.75;1.58;;;;;;;;;;5065709;28;20197;-49
2021/01/26 07:52:30;;;;;;;1.88;1.60;;;;;;;;;;5053693;28;20187;-49
2021/01/26 07:55:08;;;;;;;2.33;1.75;;;;;;;;;;5067152;28;20259;-49
2021/01/26 07:57:54;;;;;;;1.83;1.70;;;;;;;;;;5073755;28;20177;-49
2021/01/26 08:00:22;;;;;;;2.10;1.60;;;;;;;;;;5060505;28;20209;-50
2021/01/26 08:02:53;;;;;;;3.10;1.80;;;;;;;;;;5073970;28;20189;-49
2021/01/26 08:05:20;;;;;;;3.45;1.80;;;;;;;;;;5065315;28;20266;-49
2021/01/26 08:07:46;;;;;;;2.03;1.50;;;;;;;;;;5053879;28;20167;-49
2021/01/26 08:10:17;;;;;;;2.83;1.90;;;;;;;;;;5069465;28;20592;-49
2021/01/26 08:12:44;;;;;;;2.13;1.85;;;;;;;;;;5052988;28;20222;-49
2021/01/26 08:15:12;;;;;;;1.95;1.52;;;;;;;;;;5053239;28;20286;-49
2021/01/26 08:17:38;;;;;;;2.03;1.48;;;;;;;;;;5062451;28;20182;-49
2021/01/26 08:20:09;;;;;;;1.70;1.42;;;;;;;;;;5072918;28;20185;-49
2021/01/26 08:22:39;;;;;;;1.45;1.35;;;;;;;;;;5072168;28;20185;-49
2021/01/26 08:25:06;;;;;;;4.72;2.05;;;;;;;;;;5072915;28;20430;-49
2021/01/26 08:27:38;;;;;;;3.10;2.00;;;;;;;;;;5072894;28;20190;-49
2021/01/26 08:30:08;;;;;;;1.40;1.30;;;;;;;;;;5068841;28;20182;-49
2021/01/26 08:32:34;;;;;;;1.92;1.65;;;;;;;;;;5072731;28;20191;-49
2021/01/26 08:35:03;;;;;;;2.40;1.60;;;;;;;;;;5068636;28;20228;-49
2021/01/26 08:37:41;;;;;;;1.42;1.20;;;;;;;;;;5062110;28;20194;-49
2021/01/26 08:40:08;;;;;;;2.22;1.58;;;;;;;;;;5061712;28;20186;-49
2021/01/26 08:42:44;;;;;;;2.00;1.65;;;;;;;;;;5056144;28;20197;-49
2021/01/26 08:45:26;;;;;;;2.03;1.67;;;;;;;;;;5052953;28;20261;-49
2021/01/26 08:48:01;;;;;;;1.60;1.50;;;;;;;;;;5053060;28;20193;-50
2021/01/26 08:50:33;;;;;;;2.10;1.73;;;;;;;;;;5057393;28;20191;-49
2021/01/26 08:53:17;;;;;;;1.52;1.42;;;;;;;;;;5067959;28;20448;-49
2021/01/26 08:55:48;;;;;;;1.77;1.55;;;;;;;;;;5065541;28;20186;-48
2021/01/26 08:58:34;;;;;;;1.73;1.50;;;;;;;;;;5053377;28;20543;-49
2021/01/26 09:01:00;;;;;;;3.47;1.60;;;;;;;;;;5058180;28;20344;-49
2021/01/26 09:03:34;;;;;;;1.90;1.70;;;;;;;;;;5072702;28;20194;-50
2021/01/26 09:06:23;;;;;;;1.73;1.60;;;;;;;;;;5067165;28;20521;-49
2021/01/26 09:08:50;;;;;;;1.70;1.60;;;;;;;;;;5025847;28;20203;-49
2021/01/26 09:11:30;;;;;;;1.48;1.38;;;;;;;;;;5053004;28;20232;-49
2021/01/26 09:14:02;;;;;;;1.48;1.35;;;;;;;;;;5067780;28;20183;-49
2021/01/26 09:16:29;;;;;;;2.67;1.30;;;;;;;;;;5052611;28;20252;-49
2021/01/26 09:18:57;;;;;;;1.90;1.75;;;;;;;;;;5064708;28;20232;-49
2021/01/26 09:21:23;;;;;;;1.45;1.35;;;;;;;;;;5062617;28;20768;-49
2021/01/26 09:23:52;;;;;;;1.73;1.30;;;;;;;;;;5072414;28;20216;-49
2021/01/26 09:26:19;;;;;;;1.40;1.30;;;;;;;;;;5070377;28;20565;-50
2021/01/26 09:28:47;;;;;;;1.80;1.50;;;;;;;;;;5071302;28;20182;-49
2021/01/26 09:31:14;;;;;;;1.88;1.40;;;;;;;;;;5057002;28;20202;-49
2021/01/26 09:33:40;;;;;;;1.95;1.55;;;;;;;;;;5067854;28;20178;-49
2021/01/26 09:36:08;;;;;;;1.48;1.38;;;;;;;;;;5056058;28;20187;-49
2021/01/26 09:38:36;;;;;;;2.45;1.38;;;;;;;;;;5068452;28;20193;-49
2021/01/26 09:41:05;;;;;;;1.52;1.38;;;;;;;;;;5062660;28;20206;-49
2021/01/26 09:43:34;;;;;;;2.15;1.60;;;;;;;;;;5054830;28;20450;-49
2021/01/26 09:46:09;;;;;;;3.58;1.80;;;;;;;;;;5062947;28;20562;-49
2021/01/26 09:48:39;;;;;;;2.90;1.30;;;;;;;;;;5052055;28;20254;-49
2021/01/26 09:51:08;;;;;;;3.45;1.30;;;;;;;;;;5069592;28;20476;-49
2021/01/26 09:53:35;;;;;;;3.33;1.30;;;;;;;;;;5069455;28;20265;-49
2021/01/26 09:56:02;;;;;;;1.73;1.42;;;;;;;;;;5063719;28;20230;-49
2021/01/26 09:58:28;;;;;;;4.97;1.40;;;;;;;;;;5075294;28;20530;-49
2021/01/26 10:00:58;;;;;;;2.78;1.45;;;;;;;;;;5057737;28;20239;-49
2021/01/26 10:03:25;;;;;;;2.58;1.55;;;;;;;;;;5056046;28;20190;-48
2021/01/26 10:05:59;;;;;;;1.58;1.42;;;;;;;;;;5062973;28;20516;-49
2021/01/26 10:08:30;;;;;;;2.63;1.30;;;;;;;;;;5062520;28;20197;-50
2021/01/26 10:10:56;;;;;;;4.88;1.58;;;;;;;;;;5059386;28;20580;-49
2021/01/26 10:13:32;;;;;;;1.77;1.45;;;;;;;;;;5060423;28;20191;-49
2021/01/26 10:16:00;;;;;;;2.97;1.48;;;;;;;;;;5067202;28;20439;-49
2021/01/26 10:18:30;;;;;;;1.60;1.40;;;;;;;;;;5055350;28;20233;-49
2021/01/26 10:21:10;;;;;;;1.55;1.17;;;;;;;;;;5058584;28;20612;-49
2021/01/26 10:23:37;;;;;;;1.65;1.30;;;;;;;;;;5074335;28;20546;-49
2021/01/26 10:26:08;;;;;;;1.88;1.38;;;;;;;;;;5069294;28;20186;-49
2021/01/26 10:28:34;;;;;;;1.50;1.13;;;;;;;;;;5056362;28;20191;-49
2021/01/26 10:31:00;;;;;;;3.22;1.30;;;;;;;;;;5059723;28;20210;-49
2021/01/26 10:33:36;;;;;;;2.00;1.40;;;;;;;;;;5056708;28;20225;-49
2021/01/26 10:36:17;;;;;;;1.45;1.23;;;;;;;;;;5064880;28;20217;-49
2021/01/26 10:38:44;;;;;;;1.40;1.30;;;;;;;;;;5054824;28;20183;-49
2021/01/26 10:41:18;;;;;;;2.33;1.70;;;;;;;;;;5064773;28;20267;-49
2021/01/26 10:43:45;;;;;;;2.85;1.35;;;;;;;;;;5073358;28;20186;-49
2021/01/26 10:46:12;;;;;;;1.45;1.35;;;;;;;;;;5069022;28;20229;-49
2021/01/26 10:48:43;;;;;;;2.05;1.35;;;;;;;;;;5058658;28;20237;-49
2021/01/26 10:51:12;;;;;;;4.20;1.45;;;;;;;;;;5061729;28;20223;-49
2021/01/26 10:53:39;;;;;;;3.67;2.15;;;;;;;;;;5055582;28;20409;-49
2021/01/26 10:56:06;;;;;;;2.40;1.30;;;;;;;;;;5054577;28;20262;-49
2021/01/26 10:58:32;;;;;;;1.63;1.40;;;;;;;;;;5054634;28;20266;-49
2021/01/26 11:00:58;;;;;;;2.40;1.50;;;;;;;;;;5063152;28;20203;-49
2021/01/26 11:03:24;;;;;;;2.55;1.58;;;;;;;;;;5057046;28;20198;-49
2021/01/26 11:05:51;;;;;;;2.78;1.58;;;;;;;;;;5062074;28;20229;-49
2021/01/26 11:08:17;;;;;;;2.53;1.67;;;;;;;;;;5063867;28;20186;-49
2021/01/26 11:10:43;;;;;;;1.40;1.30;;;;;;;;;;5074361;28;20494;-49
2021/01/26 11:13:10;;;;;;;1.98;1.58;;;;;;;;;;5074513;28;20229;-49
2021/01/26 11:15:36;;;;;;;2.15;1.50;;;;;;;;;;5073896;28;20178;-49
2021/01/26 11:18:02;;;;;;;1.45;1.35;;;;;;;;;;5067290;28;20198;-49
2021/01/26 11:20:28;;;;;;;1.60;1.30;;;;;;;;;;5064868;28;20186;-49
2021/01/26 11:22:54;;;;;;;2.65;1.50;;;;;;;;;;5073709;28;20206;-49
2021/01/26 11:25:22;;;;;;;1.67;1.50;;;;;;;;;;5074154;28;20221;-49
2021/01/26 11:27:48;;;;;;;1.67;1.40;;;;;;;;;;5074143;28;20182;-49
2021/01/26 11:30:15;;;;;;;3.40;1.40;;;;;;;;;;5064185;28;20241;-49
2021/01/26 11:32:42;;;;;;;2.85;1.60;;;;;;;;;;5054949;28;20471;-49
2021/01/26 11:35:10;;;;;;;1.83;1.38;;;;;;;;;;5068315;28;20562;-49
2021/01/26 11:37:36;;;;;;;1.92;1.55;;;;;;;;;;5054511;28;20175;-49
2021/01/26 11:40:04;;;;;;;3.75;1.60;;;;;;;;;;5054582;28;20198;-49
2021/01/26 11:42:30;;;;;;;1.88;1.60;;;;;;;;;;5054259;28;20661;-50
2021/01/26 11:44:56;;;;;;;1.80;1.45;;;;;;;;;;5054042;28;20274;-49
2021/01/26 11:47:22;;;;;;;1.73;1.30;;;;;;;;;;5054205;28;20309;-49
2021/01/26 11:49:48;;;;;;;1.33;1.23;;;;;;;;;;5053672;28;20228;-49
2021/01/26 11:52:14;;;;;;;1.75;1.10;;;;;;;;;;5065441;28;20187;-49
2021/01/26 11:54:40;;;;;;;1.17;1.08;;;;;;;;;;5053210;28;20183;-49
2021/01/26 11:57:07;;;;;;;0.95;0.93;;;;;;;;;;5061510;28;20321;-49
2021/01/26 11:59:33;;;;;;;1.20;1.10;;;;;;;;;;5057213;28;20271;-48
2021/01/26 12:01:59;;;;;;;1.20;1.10;;;;;;;;;;5073587;28;20198;-49
2021/01/26 12:04:25;;;;;;;1.60;1.33;;;;;;;;;;5061499;28;20174;-49
2021/01/26 12:06:52;;;;;;;1.38;1.10;;;;;;;;;;5067850;28;20187;-49
2021/01/26 12:09:18;;;;;;;1.13;1.13;;;;;;;;;;5072571;28;20173;-49
2021/01/26 12:11:44;;;;;;;2.80;1.30;;;;;;;;;;5057840;28;20179;-49
2021/01/26 12:14:11;;;;;;;1.20;1.10;;;;;;;;;;5054342;28;20598;-49
2021/01/26 12:16:37;;;;;;;1.40;1.17;;;;;;;;;;5063005;28;20265;-49
2021/01/26 12:19:03;;;;;;;1.20;1.10;;;;;;;;;;5070428;28;20638;-51
2021/01/26 12:21:29;;;;;;;1.30;1.20;;;;;;;;;;5058088;28;20322;-49
2021/01/26 12:23:55;;;;;;;2.55;1.15;;;;;;;;;;5061478;28;20257;-49
2021/01/26 12:26:20;;;;;;;1.00;1.00;;;;;;;;;;5059419;28;20566;-49
2021/01/26 12:28:47;;;;;;;1.02;1.02;;;;;;;;;;5054053;28;20179;-49
2021/01/26 12:31:13;;;;;;;1.10;1.00;;;;;;;;;;5055777;28;20617;-49
2021/01/26 12:33:39;;;;;;;1.40;1.30;;;;;;;;;;5055339;28;20278;-49
2021/01/26 12:36:05;;;;;;;1.20;1.10;;;;;;;;;;5062903;28;20216;-49
2021/01/26 12:38:31;;;;;;;0.95;0.95;;;;;;;;;;5055177;28;20317;-49
2021/01/26 12:40:57;;;;;;;1.10;1.10;;;;;;;;;;5057477;28;20204;-49
2021/01/26 12:43:23;;;;;;;1.13;0.90;;;;;;;;;;5063592;28;20202;-49
2021/01/26 12:45:49;;;;;;;5.40;1.55;;;;;;;;;;5064232;28;20621;-49
2021/01/26 12:48:16;;;;;;;2.40;1.10;;;;;;;;;;5053057;28;20245;-49
2021/01/26 12:50:43;;;;;;;3.72;1.55;;;;;;;;;;5061387;28;20285;-49
2021/01/26 12:53:10;;;;;;;1.77;1.30;;;;;;;;;;5069252;28;20834;-49
2021/01/26 12:55:36;;;;;;;5.28;1.45;;;;;;;;;;5065533;28;20187;-49
2021/01/26 12:58:02;;;;;;;2.67;1.23;;;;;;;;;;5058184;28;20187;-49
2021/01/26 13:00:28;;;;;;;1.95;1.10;;;;;;;;;;5063688;28;20210;-49
2021/01/26 13:02:55;;;;;;;1.83;1.20;;;;;;;;;;5054517;28;20693;-49
2021/01/26 13:05:21;;;;;;;2.83;1.50;;;;;;;;;;5057866;28;20249;-49
2021/01/26 13:07:47;;;;;;;3.75;1.48;;;;;;;;;;5072102;28;20166;-49
2021/01/26 13:10:14;;;;;;;7.53;1.30;;;;;;;;;;5070094;28;20537;-49
2021/01/26 13:12:40;;;;;;;3.90;1.20;;;;;;;;;;5064023;28;20197;-49
2021/01/26 13:15:07;;;;;;;2.97;1.50;;;;;;;;;;5069191;28;20187;-49
2021/01/26 13:17:33;;;;;;;2.95;1.67;;;;;;;;;;5053893;28;20194;-49
2021/01/26 13:19:59;;;;;;;3.80;1.10;;;;;;;;;;5059109;28;20202;-49
2021/01/26 13:22:25;;;;;;;1.95;1.17;;;;;;;;;;5061529;28;20217;-50
2021/01/26 13:24:51;;;;;;;2.83;1.38;;;;;;;;;;5065015;28;20563;-49
2021/01/26 13:27:17;;;;;;;7.80;1.80;;;;;;;;;;5052727;28;20175;-51
2021/01/26 13:29:43;;;;;;;4.15;1.20;;;;;;;;;;5054098;28;20236;-49
2021/01/26 13:32:10;;;;;;;2.88;1.23;;;;;;;;;;5065296;28;20728;-49
2021/01/26 13:34:37;;;;;;;4.03;1.40;;;;;;;;;;5062571;28;20187;-49
2021/01/26 13:37:03;;;;;;;3.83;1.13;;;;;;;;;;5065065;28;20293;-49
2021/01/26 13:39:29;;;;;;;3.15;1.33;;;;;;;;;;5076543;28;20265;-49
2021/01/26 13:41:56;;;;;;;4.47;1.48;;;;;;;;;;5062969;28;20580;-49
2021/01/26 13:44:23;;;;;;;2.22;1.25;;;;;;;;;;5067373;28;20179;-49
2021/01/26 13:46:49;;;;;;;2.53;1.38;;;;;;;;;;5056797;28;20194;-49
2021/01/26 13:49:15;;;;;;;3.47;1.20;;;;;;;;;;5064518;28;20179;-49
2021/01/26 13:51:41;;;;;;;2.05;1.30;;;;;;;;;;5060649;28;20526;-49
2021/01/26 13:54:07;;;;;;;4.05;1.17;;;;;;;;;;5075703;28;20178;-49
2021/01/26 13:56:33;;;;;;;3.13;1.20;;;;;;;;;;5075317;28;20186;-49
2021/01/26 13:59:00;;;;;;;3.05;1.25;;;;;;;;;;5064139;28;20274;-49
2021/01/26 14:01:26;;;;;;;1.90;1.33;;;;;;;;;;5057254;28;20225;-49
2021/01/26 14:03:52;;;;;;;3.15;1.10;;;;;;;;;;5055518;28;20179;-48
2021/01/26 14:06:18;;;;;;;2.08;1.38;;;;;;;;;;5070861;28;20239;-49
2021/01/26 14:08:45;;;;;;;2.17;1.10;;;;;;;;;;5055937;28;20189;-48
2021/01/26 14:11:10;;;;;;;2.63;1.20;;;;;;;;;;5062064;28;20232;-49
2021/01/26 14:13:37;;;;;;;2.33;1.00;;;;;;;;;;5065637;28;20182;-49
2021/01/26 14:16:03;;;;;;;2.53;0.90;;;;;;;;;;5075464;28;20485;-49
2021/01/26 14:18:29;;;;;;;1.40;1.23;;;;;;;;;;5065295;28;20205;-49
2021/01/26 14:20:55;;;;;;;2.53;1.08;;;;;;;;;;5059476;28;20207;-49
2021/01/26 14:23:22;;;;;;;2.13;0.85;;;;;;;;;;5055814;28;20241;-49
2021/01/26 14:25:48;;;;;;;2.85;1.20;;;;;;;;;;5054900;28;20872;-49
2021/01/26 14:28:14;;;;;;;1.20;1.10;;;;;;;;;;5055641;28;20210;-49
2021/01/26 14:30:40;;;;;;;1.25;0.90;;;;;;;;;;5055212;28;20206;-49
2021/01/26 14:33:06;;;;;;;2.63;1.00;;;;;;;;;;5061481;28;20214;-48
2021/01/26 14:35:33;;;;;;;1.38;1.10;;;;;;;;;;5059467;28;20187;-49
2021/01/26 14:37:59;;;;;;;3.88;1.15;;;;;;;;;;5068021;28;20186;-49
2021/01/26 14:40:26;;;;;;;1.63;0.82;;;;;;;;;;5074498;28;20197;-49
2021/01/26 14:42:52;;;;;;;1.42;1.10;;;;;;;;;;5074091;28;20186;-49
2021/01/26 14:45:19;;;;;;;2.47;1.38;;;;;;;;;;5056789;28;20616;-49
2021/01/26 14:47:45;;;;;;;1.67;0.98;;;;;;;;;;5073503;28;20783;-49
2021/01/26 14:50:12;;;;;;;3.78;1.63;;;;;;;;;;5069774;28;20178;-49
2021/01/26 14:52:38;;;;;;;3.38;1.23;;;;;;;;;;5064655;28;20194;-49
2021/01/26 14:55:04;;;;;;;4.22;1.20;;;;;;;;;;5074812;28;20445;-49
2021/01/26 14:57:30;;;;;;;3.40;1.10;;;;;;;;;;5075020;28;20182;-48